createdAt,value
2018-09-14T00:01:56.818Z,7.40
2018-09-14T00:04:26.059Z,8.50
2018-09-14T00:06:55.421Z,6.47
2018-09-14T00:09:24.762Z,11.30
2018-09-14T00:11:54.062Z,14.47
2018-09-14T00:14:23.400Z,6.97
2018-09-14T00:16:52.854Z,10.70
2018-09-14T00:19:22.224Z,9.07
2018-09-14T00:21:51.688Z,8.00
2018-09-14T00:24:20.879Z,12.43
2018-09-14T00:26:51.248Z,7.60
2018-09-14T00:29:20.663Z,9.57
2018-09-14T00:31:50.077Z,7.03
2018-09-14T00:34:19.436Z,5.23
2018-09-14T00:36:48.726Z,8.70
2018-09-14T00:39:18.624Z,6.70
2018-09-14T00:41:48.499Z,8.17
2018-09-14T00:44:17.867Z,6.70
2018-09-14T00:46:47.156Z,7.57
2018-09-14T00:49:16.424Z,8.70
2018-09-14T00:51:45.816Z,6.30
2018-09-14T00:54:15.205Z,9.77
2018-09-14T00:56:44.468Z,7.27
2018-09-14T00:59:13.811Z,7.47
2018-09-14T01:01:43.247Z,9.37
2018-09-14T01:04:12.591Z,10.40
2018-09-14T01:06:42.040Z,9.87
2018-09-14T01:09:18.669Z,10.03
2018-09-14T01:11:48.475Z,8.03
2018-09-14T01:14:17.767Z,8.93
2018-09-14T01:16:46.983Z,8.60
2018-09-14T01:19:16.168Z,11.40
2018-09-14T01:21:45.523Z,12.60
2018-09-14T01:24:14.772Z,6.73
2018-09-14T01:26:44.162Z,8.70
2018-09-14T01:29:13.540Z,12.87
2018-09-14T01:31:42.835Z,9.80
2018-09-14T01:34:12.060Z,20.17
2018-09-14T01:36:41.564Z,8.27
2018-09-14T01:39:12.770Z,10.43
2018-09-14T01:41:42.104Z,7.80
2018-09-14T01:44:11.346Z,7.73
2018-09-14T01:46:40.692Z,13.27
2018-09-14T01:49:10.119Z,9.73
2018-09-14T01:51:39.464Z,6.10
2018-09-14T01:54:09.792Z,9.30
2018-09-14T01:56:39.089Z,16.57
2018-09-14T01:59:08.426Z,10.30
2018-09-14T02:01:37.753Z,13.60
2018-09-14T02:04:07.159Z,9.90
2018-09-14T02:06:36.692Z,9.27
2018-09-14T02:09:08.133Z,7.90
2018-09-14T02:11:37.652Z,7.20
2018-09-14T02:14:07.268Z,9.90
2018-09-14T02:16:36.669Z,7.70
2018-09-14T02:19:06.324Z,7.47
2018-09-14T02:21:35.550Z,8.77
2018-09-14T02:24:04.850Z,11.13
2018-09-14T02:26:34.348Z,9.90
2018-09-14T02:29:04.404Z,16.30
2018-09-14T02:31:33.725Z,10.63
2018-09-14T02:34:03.155Z,9.10
2018-09-14T02:36:32.742Z,15.13
2018-09-14T02:39:02.275Z,6.40
2018-09-14T02:41:31.706Z,7.60
2018-09-14T02:44:01.100Z,8.97
2018-09-14T02:46:30.330Z,6.10
2018-09-14T02:48:59.717Z,6.40
2018-09-14T02:51:29.128Z,5.80
2018-09-14T02:53:58.391Z,6.87
2018-09-14T02:56:27.684Z,8.60
2018-09-14T02:58:56.942Z,7.73
2018-09-14T03:01:26.320Z,7.37
2018-09-14T03:03:55.877Z,8.60
2018-09-14T03:06:25.349Z,7.60
2018-09-14T03:08:55.394Z,8.13
2018-09-14T03:11:24.686Z,8.30
2018-09-14T03:13:54.227Z,6.87
2018-09-14T03:16:23.496Z,6.43
2018-09-14T03:18:52.764Z,7.20
2018-09-14T03:21:22.129Z,7.93
2018-09-14T03:23:51.326Z,10.70
2018-09-14T03:26:20.775Z,10.40
2018-09-14T03:28:50.231Z,6.20
2018-09-14T03:31:19.621Z,6.63
2018-09-14T03:33:48.962Z,8.87
2018-09-14T03:36:18.313Z,10.10
2018-09-14T03:38:47.572Z,10.40
2018-09-14T03:41:16.870Z,17.90
2018-09-14T03:43:46.324Z,8.37
2018-09-14T03:46:15.698Z,10.23
2018-09-14T03:48:45.117Z,7.20
2018-09-14T03:51:14.535Z,9.53
2018-09-14T03:53:43.959Z,7.53
2018-09-14T03:56:13.413Z,10.17
2018-09-14T03:58:42.764Z,9.23
2018-09-14T04:01:12.187Z,10.70
2018-09-14T04:03:41.949Z,8.50
2018-09-14T04:06:11.521Z,7.40
2018-09-14T04:08:43.079Z,9.50
2018-09-14T04:11:12.675Z,7.97
2018-09-14T04:13:42.657Z,10.60
2018-09-14T04:16:12.569Z,13.87
2018-09-14T04:18:41.574Z,10.40
2018-09-14T04:21:11.042Z,10.53
2018-09-14T04:23:40.378Z,9.40
2018-09-14T04:26:09.977Z,8.70
2018-09-14T04:28:39.356Z,19.23
2018-09-14T04:31:08.703Z,9.10
2018-09-14T04:33:37.817Z,8.70
2018-09-14T04:36:07.063Z,7.30
2018-09-14T04:38:36.530Z,13.60
2018-09-14T04:41:06.109Z,9.17
2018-09-14T04:43:35.408Z,10.47
2018-09-14T04:46:04.939Z,9.50
2018-09-14T04:48:34.362Z,10.40
2018-09-14T04:51:04.169Z,12.53
2018-09-14T04:53:33.560Z,9.70
2018-09-14T04:56:02.999Z,13.63
2018-09-14T04:58:32.312Z,7.07
2018-09-14T05:01:01.600Z,13.20
2018-09-14T05:03:31.059Z,9.63
2018-09-14T05:06:00.256Z,8.23
2018-09-14T05:08:29.717Z,14.40
2018-09-14T05:10:59.177Z,23.63
2018-09-14T05:13:29.029Z,18.27
2018-09-14T05:15:58.359Z,9.60
2018-09-14T05:18:27.692Z,9.00
2018-09-14T05:20:57.220Z,7.17
2018-09-14T05:23:26.671Z,7.80
2018-09-14T05:25:56.130Z,9.17
2018-09-14T05:28:25.473Z,7.83
2018-09-14T05:30:54.977Z,8.40
2018-09-14T05:33:24.347Z,14.30
2018-09-14T05:35:54.347Z,9.43
2018-09-14T05:38:23.766Z,7.43
2018-09-14T05:40:52.990Z,12.10
2018-09-14T05:43:22.249Z,10.63
2018-09-14T05:45:51.625Z,11.60
2018-09-14T05:48:20.926Z,10.87
2018-09-14T05:50:50.150Z,9.93
2018-09-14T05:53:19.518Z,7.03
2018-09-14T05:55:48.816Z,7.80
2018-09-14T05:58:18.164Z,7.90
2018-09-14T06:00:47.663Z,19.60
2018-09-14T06:03:17.227Z,11.73
2018-09-14T06:05:46.711Z,9.70
2018-09-14T06:08:16.202Z,9.00
2018-09-14T06:10:45.655Z,9.63
2018-09-14T06:13:15.127Z,8.87
2018-09-14T06:15:44.497Z,10.33
2018-09-14T06:18:13.994Z,11.33
2018-09-14T06:20:43.495Z,11.90
2018-09-14T06:23:13.404Z,20.50
2018-09-14T06:25:43.121Z,11.23
2018-09-14T06:28:12.865Z,15.20
2018-09-14T06:30:42.512Z,12.07
2018-09-14T06:33:12.042Z,12.97
2018-09-14T06:35:41.564Z,12.13
2018-09-14T06:38:11.062Z,14.70
2018-09-14T06:40:40.416Z,14.10
2018-09-14T06:43:09.973Z,12.20
2018-09-14T06:45:39.367Z,10.60
2018-09-14T06:48:09.992Z,14.07
2018-09-14T06:50:39.569Z,12.60
2018-09-14T06:53:09.622Z,11.60
2018-09-14T06:55:39.650Z,12.80
2018-09-14T06:58:08.926Z,13.90
2018-09-14T07:00:38.211Z,10.23
2018-09-14T07:03:07.537Z,10.03
2018-09-14T07:05:36.802Z,11.03
2018-09-14T07:08:06.152Z,6.77
2018-09-14T07:10:35.519Z,8.37
2018-09-14T07:13:05.016Z,7.77
2018-09-14T07:15:34.463Z,10.23
2018-09-14T07:18:05.082Z,8.73
2018-09-14T07:20:34.557Z,8.70
2018-09-14T07:23:03.939Z,13.23
2018-09-14T07:25:34.176Z,14.80
2018-09-14T07:28:03.795Z,8.83
2018-09-14T07:30:33.526Z,13.83
2018-09-14T07:33:02.938Z,9.40
2018-09-14T07:35:32.329Z,27.23
2018-09-14T07:38:01.814Z,9.90
2018-09-14T07:40:32.256Z,11.20
2018-09-14T07:43:01.709Z,8.00
2018-09-14T07:45:31.480Z,10.70
2018-09-14T07:48:00.962Z,10.50
2018-09-14T07:50:30.406Z,10.07
2018-09-14T07:53:00.012Z,15.63
2018-09-14T07:55:30.127Z,10.40
2018-09-14T07:57:59.720Z,10.87
2018-09-14T08:00:29.460Z,10.00
2018-09-14T08:02:59.045Z,8.90
2018-09-14T08:05:28.825Z,10.20
2018-09-14T08:07:58.485Z,8.47
2018-09-14T08:10:27.845Z,10.00
2018-09-14T08:12:57.221Z,9.70
2018-09-14T08:15:26.688Z,11.90
2018-09-14T08:17:55.965Z,12.93
2018-09-14T08:20:25.221Z,11.43
2018-09-14T08:22:54.509Z,8.93
2018-09-14T08:25:24.553Z,11.40
2018-09-14T08:27:54.024Z,8.90
2018-09-14T08:30:23.719Z,9.23
2018-09-14T08:32:53.834Z,10.00
2018-09-14T08:35:23.195Z,8.77
2018-09-14T08:37:52.854Z,15.97
2018-09-14T08:40:22.211Z,8.50
2018-09-14T08:42:51.710Z,8.33
2018-09-14T08:45:21.134Z,10.47
2018-09-14T08:47:50.485Z,13.40
2018-09-14T08:50:19.776Z,11.20
2018-09-14T08:52:49.277Z,8.23
2018-09-14T08:55:18.759Z,8.40
2018-09-14T08:57:48.011Z,8.13
2018-09-14T09:00:22.939Z,6.10
2018-09-14T09:02:53.375Z,7.80
2018-09-14T09:05:23.438Z,11.40
2018-09-14T09:07:52.935Z,11.87
2018-09-14T09:10:22.399Z,7.97
2018-09-14T09:12:52.036Z,6.37
2018-09-14T09:15:21.453Z,8.13
2018-09-14T09:17:51.089Z,9.23
2018-09-14T09:20:20.800Z,9.67
2018-09-14T09:22:50.472Z,7.33
2018-09-14T09:25:19.898Z,5.93
2018-09-14T09:27:49.376Z,10.50
2018-09-14T09:30:18.861Z,7.20
2018-09-14T09:32:48.322Z,7.27
2018-09-14T09:35:18.402Z,7.50
2018-09-14T09:37:49.119Z,12.87
2018-09-14T09:40:18.454Z,7.17
2018-09-14T09:42:47.688Z,7.13
2018-09-14T09:45:17.066Z,7.87
2018-09-14T09:47:46.392Z,14.40
2018-09-14T09:50:15.711Z,5.57
2018-09-14T09:52:45.088Z,16.57
2018-09-14T09:55:14.474Z,5.97
2018-09-14T09:57:44.358Z,7.10
2018-09-14T10:00:19.468Z,6.43
2018-09-14T10:02:53.927Z,6.93
2018-09-14T10:05:28.372Z,8.30
2018-09-14T10:07:57.845Z,6.00
2018-09-14T10:10:27.251Z,7.20
2018-09-14T10:12:56.698Z,5.63
2018-09-14T10:15:25.962Z,10.57
2018-09-14T10:17:55.272Z,6.90
2018-09-14T10:20:24.811Z,8.00
2018-09-14T10:22:54.516Z,7.20
2018-09-14T10:25:25.181Z,8.00
2018-09-14T10:27:54.718Z,10.43
2018-09-14T10:30:24.122Z,8.37
2018-09-14T10:32:53.768Z,8.33
2018-09-14T10:35:23.480Z,6.43
2018-09-14T10:37:53.981Z,6.20
2018-09-14T10:40:24.637Z,6.27
2018-09-14T10:42:55.184Z,6.37
2018-09-14T10:45:25.002Z,5.47
2018-09-14T10:47:54.822Z,11.83
2018-09-14T10:50:24.170Z,10.37
2018-09-14T10:52:53.500Z,9.40
2018-09-14T10:55:22.781Z,8.57
2018-09-14T10:57:52.607Z,9.73
2018-09-14T11:00:24.013Z,8.30
2018-09-14T11:02:53.497Z,7.70
2018-09-14T11:05:22.883Z,5.27
2018-09-14T11:07:52.415Z,8.00
2018-09-14T11:10:22.194Z,9.77
2018-09-14T11:12:51.753Z,5.00
2018-09-14T11:15:21.368Z,9.97
2018-09-14T11:17:50.650Z,7.10
2018-09-14T11:20:20.026Z,14.43
2018-09-14T11:22:49.775Z,7.47
2018-09-14T11:25:19.521Z,5.33
2018-09-14T11:27:48.908Z,10.60
2018-09-14T11:30:18.811Z,5.80
2018-09-14T11:32:49.826Z,10.13
2018-09-14T11:35:19.435Z,8.03
2018-09-14T11:37:49.160Z,8.23
2018-09-14T11:40:18.534Z,5.23
2018-09-14T11:42:48.943Z,9.40
2018-09-14T11:45:18.396Z,6.20
2018-09-14T11:47:47.682Z,11.20
2018-09-14T11:50:17.131Z,5.87
2018-09-14T11:52:47.800Z,5.20
2018-09-14T11:55:17.094Z,4.90
2018-09-14T11:57:47.926Z,4.00
2018-09-14T12:00:17.873Z,2.87
2018-09-14T12:02:47.855Z,2.30
2018-09-14T12:05:17.369Z,2.17
2018-09-14T12:07:47.388Z,4.20
2018-09-14T12:10:16.721Z,1.40
2018-09-14T12:12:46.281Z,1.17
2018-09-14T12:15:15.852Z,2.40
2018-09-14T12:17:45.972Z,2.90
2018-09-14T12:20:15.973Z,1.70
2018-09-14T12:22:46.110Z,1.77
2018-09-14T12:25:15.917Z,4.77
2018-09-14T12:27:45.370Z,2.67
2018-09-14T12:30:14.878Z,1.20
2018-09-14T12:32:44.452Z,0.63
2018-09-14T12:35:15.212Z,1.00
2018-09-14T12:37:45.157Z,0.80
2018-09-14T12:40:14.714Z,0.60
2018-09-14T12:42:44.666Z,2.40
2018-09-14T12:45:14.240Z,0.63
2018-09-14T12:47:43.684Z,0.67
2018-09-14T12:50:12.786Z,0.60
2018-09-14T12:52:43.221Z,0.77
2018-09-14T12:55:12.768Z,0.60
2018-09-14T12:57:42.120Z,0.93
2018-09-14T13:00:12.625Z,1.10
2018-09-14T13:02:43.469Z,3.70
2018-09-14T13:05:13.107Z,5.77
2018-09-14T13:07:43.845Z,20.40
2018-09-14T13:10:13.345Z,42.17
2018-09-14T13:12:42.755Z,82.20
2018-09-14T13:15:13.061Z,62.30
2018-09-14T13:17:42.528Z,34.13
2018-09-14T13:20:12.026Z,17.93
2018-09-14T13:22:41.377Z,4.80
2018-09-14T13:25:10.913Z,2.30
2018-09-14T13:27:40.372Z,1.53
2018-09-14T13:30:10.660Z,4.43
2018-09-14T13:32:42.775Z,3.07
2018-09-14T13:35:12.545Z,9.23
2018-09-14T13:37:41.950Z,54.60
2018-09-14T13:40:12.165Z,35.47
2018-09-14T13:42:41.521Z,76.73
2018-09-14T13:45:10.736Z,28.90
2018-09-14T13:47:40.156Z,38.83
2018-09-14T13:50:09.597Z,42.90
2018-09-14T13:52:39.074Z,130.50
2018-09-14T13:55:08.404Z,34.77
2018-09-14T13:57:38.000Z,17.43
2018-09-14T14:00:07.908Z,99.33
2018-09-14T14:02:37.305Z,35.90
2018-09-14T14:05:06.664Z,35.20
2018-09-14T14:07:35.757Z,40.73
2018-09-14T14:10:05.040Z,101.57
2018-09-14T14:12:34.064Z,41.77
2018-09-14T14:15:03.277Z,97.77
2018-09-14T14:17:32.356Z,47.23
2018-09-14T14:20:01.490Z,6.10
2018-09-14T14:22:31.087Z,2.93
2018-09-14T14:25:00.263Z,4.83
2018-09-14T14:27:29.326Z,1.47
2018-09-14T14:29:58.418Z,1.60
2018-09-14T14:32:27.544Z,2.70
2018-09-14T14:34:56.955Z,3.20
2018-09-14T14:37:26.495Z,0.90
2018-09-14T14:39:56.157Z,1.20
2018-09-14T14:42:25.532Z,1.67
2018-09-14T14:44:56.230Z,1.67
2018-09-14T14:47:25.724Z,0.97
2018-09-14T14:49:55.068Z,7.83
2018-09-14T14:52:24.456Z,2.23
2018-09-14T14:54:53.487Z,2.60
2018-09-14T14:57:22.645Z,2.00
2018-09-14T14:59:51.723Z,8.47
2018-09-14T15:02:20.794Z,1.30
2018-09-14T15:04:50.617Z,4.00
2018-09-14T15:07:20.022Z,3.17
2018-09-14T15:09:49.182Z,6.90
2018-09-14T15:12:18.309Z,1.10
2018-09-14T15:14:50.516Z,4.73
2018-09-14T15:17:20.199Z,1.73
2018-09-14T15:19:49.496Z,5.03
2018-09-14T15:22:18.583Z,6.13
2018-09-14T15:24:47.785Z,2.93
2018-09-14T15:27:16.879Z,4.20
2018-09-14T15:29:46.211Z,2.27
2018-09-14T15:32:15.277Z,1.70
2018-09-14T15:34:44.307Z,2.90
2018-09-14T15:37:13.385Z,1.23
2018-09-14T15:39:42.402Z,1.30
2018-09-14T15:42:11.523Z,2.97
2018-09-14T15:44:40.641Z,0.90
2018-09-14T15:47:09.738Z,1.40
2018-09-14T15:49:38.872Z,3.07
2018-09-14T15:52:07.929Z,3.83
2018-09-14T15:54:37.005Z,3.40
2018-09-14T15:57:06.105Z,1.80
2018-09-14T15:59:35.269Z,1.43
2018-09-14T16:02:04.283Z,1.60
2018-09-14T16:04:33.332Z,4.10
2018-09-14T16:07:02.348Z,4.33
2018-09-14T16:09:31.344Z,1.33
2018-09-14T16:12:00.450Z,1.40
2018-09-14T16:14:29.463Z,1.23
2018-09-14T16:16:58.543Z,1.40
2018-09-14T16:19:27.776Z,2.13
2018-09-14T16:21:56.786Z,3.50
2018-09-14T16:24:27.641Z,1.30
2018-09-14T16:26:56.927Z,2.90
2018-09-14T16:29:25.962Z,1.23
2018-09-14T16:31:55.166Z,1.07
2018-09-14T16:34:24.233Z,2.63
2018-09-14T16:36:53.232Z,3.30
2018-09-14T16:39:22.349Z,4.20
2018-09-14T16:41:51.379Z,2.90
2018-09-14T16:44:20.443Z,3.80
2018-09-14T16:46:49.612Z,2.67
2018-09-14T16:49:18.655Z,2.47
2018-09-14T16:51:48.213Z,6.80
2018-09-14T16:54:17.249Z,9.00
2018-09-14T16:56:46.382Z,3.87
2018-09-14T16:59:15.398Z,3.00
2018-09-14T17:01:44.457Z,1.20
2018-09-14T17:04:13.556Z,2.90
2018-09-14T17:06:42.668Z,1.43
2018-09-14T17:09:12.317Z,2.70
2018-09-14T17:11:41.502Z,3.47
2018-09-14T17:14:10.669Z,1.60
2018-09-14T17:16:39.806Z,2.30
2018-09-14T17:19:09.775Z,1.83
2018-09-14T17:21:39.033Z,3.80
2018-09-14T17:24:08.022Z,1.13
2018-09-14T17:26:37.120Z,5.50
2018-09-14T17:29:06.194Z,1.40
2018-09-14T17:31:35.314Z,1.70
2018-09-14T17:34:04.340Z,1.20
2018-09-14T17:36:34.301Z,2.80
2018-09-14T17:39:03.411Z,1.47
2018-09-14T17:41:32.503Z,1.33
2018-09-14T17:44:02.143Z,1.60
2018-09-14T17:46:33.290Z,1.90
2018-09-14T17:49:03.851Z,1.80
2018-09-14T17:51:32.906Z,1.23
2018-09-14T17:54:01.922Z,1.30
2018-09-14T17:56:31.056Z,1.33
2018-09-14T17:59:00.715Z,2.27
2018-09-14T18:01:30.649Z,2.13
2018-09-14T18:03:59.832Z,1.03
2018-09-14T18:06:28.974Z,4.47
2018-09-14T18:08:58.322Z,1.30
2018-09-14T18:11:27.503Z,3.07
2018-09-14T18:13:57.414Z,6.63
2018-09-14T18:16:27.390Z,8.43
2018-09-14T18:18:56.721Z,2.47
2018-09-14T18:21:25.995Z,1.40
2018-09-14T18:23:56.611Z,6.03
2018-09-14T18:26:25.789Z,2.13
2018-09-14T18:28:56.194Z,3.23
2018-09-14T18:31:25.378Z,0.80
2018-09-14T18:33:56.270Z,8.93
2018-09-14T18:36:28.267Z,1.10
2018-09-14T18:38:58.592Z,1.77
2018-09-14T18:41:28.237Z,0.70
2018-09-14T18:43:58.672Z,2.43
2018-09-14T18:46:29.101Z,6.20
2018-09-14T18:49:00.640Z,1.53
2018-09-14T18:51:33.426Z,1.10
2018-09-14T18:54:02.786Z,1.33
2018-09-14T18:56:31.971Z,1.30
2018-09-14T18:59:03.017Z,4.20
2018-09-14T19:01:32.116Z,2.63
2018-09-14T19:04:01.345Z,2.60
2018-09-14T19:06:31.760Z,2.80
2018-09-14T19:09:01.046Z,2.27
2018-09-14T19:11:31.288Z,0.60
2018-09-14T19:14:00.550Z,1.23
2018-09-14T19:16:29.748Z,2.93
2018-09-14T19:18:58.880Z,1.20
2018-09-14T19:21:28.140Z,1.67
2018-09-14T19:23:58.581Z,1.13
2018-09-14T19:26:28.071Z,3.07
2018-09-14T19:28:57.530Z,4.73
2018-09-14T19:31:30.977Z,1.17
2018-09-14T19:34:00.255Z,6.73
2018-09-14T19:36:31.655Z,2.83
2018-09-14T19:39:01.031Z,1.60
2018-09-14T19:41:31.979Z,0.90
2018-09-14T19:44:01.260Z,1.40
2018-09-14T19:46:30.787Z,3.50
2018-09-14T19:49:02.002Z,2.23
2018-09-14T19:51:31.224Z,3.00
2018-09-14T19:54:01.230Z,2.17
2018-09-14T19:56:30.460Z,3.00
2018-09-14T19:59:00.319Z,2.73
2018-09-14T20:01:29.585Z,3.83
2018-09-14T20:03:58.872Z,1.67
2018-09-14T20:06:28.259Z,11.37
2018-09-14T20:08:57.353Z,4.23
2018-09-14T20:11:28.927Z,6.83
2018-09-14T20:13:58.160Z,3.23
2018-09-14T20:16:27.867Z,1.90
2018-09-14T20:18:58.610Z,1.77
2018-09-14T20:21:28.700Z,1.40
2018-09-14T20:23:58.553Z,1.33
2018-09-14T20:26:27.857Z,2.97
2018-09-14T20:28:58.011Z,3.17
2018-09-14T20:31:27.526Z,2.10
2018-09-14T20:33:58.517Z,0.83
2018-09-14T20:36:27.685Z,1.53
2018-09-14T20:38:58.397Z,4.03
2018-09-14T20:41:27.697Z,7.93
2018-09-14T20:43:56.803Z,0.90
2018-09-14T20:46:28.228Z,1.97
2018-09-14T20:48:57.961Z,2.77
2018-09-14T20:51:27.213Z,3.80
2018-09-14T20:53:56.453Z,1.40
2018-09-14T20:56:26.940Z,3.80
2018-09-14T20:58:56.452Z,2.03
2018-09-14T21:01:27.053Z,1.53
2018-09-14T21:03:56.416Z,1.20
2018-09-14T21:06:26.031Z,1.43
2018-09-14T21:08:55.544Z,5.97
2018-09-14T21:11:24.637Z,3.50
2018-09-14T21:13:53.759Z,1.40
2018-09-14T21:16:22.807Z,6.40
2018-09-14T21:18:52.190Z,1.27
2018-09-14T21:21:21.586Z,1.27
2018-09-14T21:23:50.656Z,2.90
2018-09-14T21:26:19.985Z,5.77
2018-09-14T21:28:49.204Z,1.10
2018-09-14T21:31:18.284Z,11.13
2018-09-14T21:33:47.841Z,2.10
2018-09-14T21:36:18.051Z,1.40
2018-09-14T21:38:47.050Z,6.70
2018-09-14T21:41:16.162Z,3.17
2018-09-14T21:43:45.212Z,1.00
2018-09-14T21:46:14.224Z,3.57
2018-09-14T21:48:44.108Z,1.67
2018-09-14T21:51:13.204Z,1.27
2018-09-14T21:53:43.427Z,4.93
2018-09-14T21:56:13.071Z,4.57
2018-09-14T21:58:42.195Z,1.30
2018-09-14T22:01:14.566Z,5.57
2018-09-14T22:03:45.496Z,1.70
2018-09-14T22:06:15.121Z,6.73
2018-09-14T22:08:44.619Z,2.47
2018-09-14T22:11:13.998Z,3.37
2018-09-14T22:13:45.115Z,1.50
2018-09-14T22:16:14.440Z,2.13
2018-09-14T22:18:43.827Z,2.90
2018-09-14T22:21:13.793Z,2.13
2018-09-14T22:23:42.962Z,1.10
2018-09-14T22:26:12.037Z,1.53
2018-09-14T22:28:41.706Z,2.47
2018-09-14T22:31:10.766Z,1.40
2018-09-14T22:33:40.138Z,2.60
2018-09-14T22:36:09.242Z,4.07
2018-09-14T22:38:38.560Z,6.20
2018-09-14T22:41:08.079Z,1.80
2018-09-14T22:43:38.640Z,1.90
2018-09-14T22:46:07.714Z,6.10
2018-09-14T22:48:37.021Z,3.40
2018-09-14T22:51:06.977Z,3.03
2018-09-14T22:53:36.426Z,1.10
2018-09-14T22:56:05.591Z,3.27
2018-09-14T22:58:34.634Z,3.33
2018-09-14T23:01:08.662Z,1.40
2018-09-14T23:03:37.741Z,3.10
2018-09-14T23:06:06.701Z,1.70
2018-09-14T23:08:35.667Z,1.83
2018-09-14T23:11:04.884Z,2.13
2018-09-14T23:13:34.016Z,1.40
2018-09-14T23:16:03.956Z,1.20
2018-09-14T23:18:33.028Z,3.40
2018-09-14T23:21:02.520Z,1.13
2018-09-14T23:23:31.972Z,3.23
2018-09-14T23:26:17.617Z,1.00
2018-09-14T23:28:46.767Z,6.90
2018-09-14T23:31:15.728Z,2.03
2018-09-14T23:33:44.842Z,1.10
2018-09-14T23:36:13.865Z,3.93
2018-09-14T23:38:42.935Z,3.53
2018-09-14T23:41:11.905Z,2.60
2018-09-14T23:43:40.872Z,1.83
2018-09-14T23:46:09.958Z,4.33
2018-09-14T23:48:38.919Z,3.93
2018-09-14T23:51:07.973Z,2.50
2018-09-14T23:53:37.017Z,1.63
2018-09-14T23:56:06.303Z,5.80
2018-09-14T23:58:35.734Z,7.80
